Etusivu
METAR-TAF:

METAR-TAF

Lentoasemat :

Luxorin kansainvälinen lentoasema

Luxor, Egypti

Leveyspiiri: 25-40N, Pituuspiiri: 032-42E, korkeus merenpinnasta: 93 m

Tämänhetkinen sää

Tämä raportti tehtiin 47 minuuttia sitten, kello 09.00 UTC
Tuuli 3 kn lännestä
Lämpötila 20°C
Kosteus 53%
Ilmanpaine 1015 hPa
Näkyvyys: 6000 m

METAR: HELX 180900Z 27003KT 6000 NSC 20/10 Q1015 NOSIG

Aika: 11:47 (09:47 UTC)

Sääennuste

Tämä raportti tehtiin 4 tuntia ja 47 minuuttia sitten, kello 05.00 UTC
Ennuste voimassa 18. päivästä klo 06 UTC - 19. päivään klo 12 UTC
Tuuli 10 kn luoteesta
Näkyvyys 10 km tai enemmän
ei pilviä alle 1500 m:ssä eikä cumulonimbus-pilviä
Ajoittain
18. päivästä klo 06 UTC - 18. päivään klo 10 UTC
Tuuli 3 kn eri suunnista
usvaa

TAF: HELX 180500Z 1806/1912 31010KT CAVOK TEMPO 1806/1810 VRB03KT 4000M HZ NSC

Säähavainnot ja -ennusteet yli 4000 lentoasemalta (METAR- ja TAF-raportit).

Käytössä olevat sääasemat on merkitty karttaan keltaisilla ja punaisilla pisteillä.

Aseta hiiri pisteen päälle nähdäksesi sääaseman nimen.

Klikkaa sitten nähdäksesi säähavainnot ja -ennusteet.

Kartan vaihtaminen: klikkaa mustalla rastilla varustettuja vihreitä pisteitä, niin voit zoomata sisään; viivalla varustettua vihreää pistettä, niin voit zoomata ulos tai vihreitä nuolia, niin pääset viereisille kartoille.


METAR-TAF: